Flight Track Log - Related Links

Times and Time Zones

All times are in EDT time to prevent confusion due to time zone crossing. See the CTL13 flight status page for this flight to view local times or setup timezone preferences in your user account.

Time Position Orientation Groundspeed Altitude Reporting Facility
EDT Latitude Longitude Course Direction KTS MPH feet Rate Location/Type
Fri 06:59:10 PM 41.5272 -81.6842 314° West 119 137 1,100  Level Cleveland Center
Fri 06:59:40 PM 41.5417 -81.7039 314° West 133 153 1,800 1,714 Climbing Cleveland Center
Fri 07:00:41 PM 41.5603 -81.7319 312° West 109 125 3,700 1,722 Climbing Cleveland Center
Fri 07:01:35 PM 41.5767 -81.7544 314° West 87 100 5,100 1,289 Climbing Cleveland Center
Fri 07:02:42 PM 41.5719 -81.7989 262° West 118 136 6,300 1,134 Climbing Cleveland Center
Fri 07:03:42 PM 41.5675 -81.8403 262° West 113 130 7,500 803 Climbing Cleveland Center
Fri 07:04:49 PM 41.5503 -81.8900 245° Southwest 147 169 8,000 246 Climbing Cleveland Center
Fri 07:05:44 PM 41.5308 -81.9394 242° Southwest 165 190 8,000  Level Cleveland Center
Fri 07:06:44 PM 41.5094 -81.9917 241° Southwest 159 183 8,000  Level Cleveland Center
Fri 07:07:45 PM 41.4900 -82.0439 244° Southwest 157 181 8,000  Level Cleveland Center
Fri 07:08:46 PM 41.4706 -82.0933 242° Southwest 157 181 8,000  Level Cleveland Center
Fri 07:09:59 PM 41.4447 -82.1564 241° Southwest 158 182 8,000  Level Cleveland Center
Fri 07:10:59 PM 41.4253 -82.2086 244° Southwest 157 181 8,000  Level Cleveland Center
Fri 07:12:06 PM 41.4014 -82.2717 243° Southwest 159 183 8,000  Level Cleveland Center
Fri 07:14:00 PM 41.3418 -82.3528 226° Southwest  Level FlightAware Approximate
Fri 07:17:22 PM 41.2967 -82.5311 240° Southwest 154 177 8,000  Level Indianapolis Center
Fri 07:18:24 PM 41.2761 -82.5831 242° Southwest 157 181 8,000  Level Indianapolis Center
Fri 07:19:26 PM 41.2536 -82.6342 240° Southwest 159 183 8,000  Level Indianapolis Center
Fri 07:20:28 PM 41.2319 -82.6847 240° Southwest 158 182 8,000  Level Indianapolis Center
Fri 07:21:00 PM 41.2062 -82.7292 245° Southwest  Level Estimated
Fri 07:21:30 PM 41.2114 -82.7358 242° Southwest 156 180 8,000  Level Indianapolis Center
Fri 07:22:00 PM 41.1838 -82.7808 240° Southwest  Level FlightAware Approximate
Fri 07:22:32 PM 41.1914 -82.7861 242° Southwest 154 177 8,100  Level Indianapolis Center
Fri 07:23:34 PM 41.1708 -82.8383 242° Southwest 157 181 8,000 -48 Descending Indianapolis Center
Fri 07:24:36 PM 41.1458 -82.8992 241° Southwest 159 183 8,000 48 Level Indianapolis Center
Fri 07:25:38 PM 41.1256 -82.9511 243° Southwest 158 182 8,100  Climbing Indianapolis Center
Fri 07:26:40 PM 41.1056 -83.0042 243° Southwest 158 182 8,000 -48 Descending Indianapolis Center
Fri 07:27:42 PM 41.0836 -83.0550 240° Southwest 158 182 8,000 49 Level Indianapolis Center
Fri 07:28:43 PM 41.0636 -83.1072 243° Southwest 157 181 8,100 -49 Climbing Indianapolis Center
Fri 07:29:45 PM 41.0428 -83.1586 242° Southwest 157 181 7,900 -48 Descending Indianapolis Center
Fri 07:30:47 PM 41.0214 -83.2111 242° Southwest 159 183 8,000 48 Climbing Indianapolis Center
Fri 07:31:49 PM 40.9997 -83.2636 241° Southwest 161 185 8,000 -48 Level Indianapolis Center
Fri 07:32:51 PM 40.9778 -83.3144 240° Southwest 159 183 7,900  Descending Indianapolis Center
Fri 07:33:53 PM 40.9528 -83.3725 240° Southwest 156 180 8,000  Climbing Indianapolis Center
Fri 07:34:54 PM 40.9325 -83.4233 242° Southwest 154 177 7,900  Descending Indianapolis Center
Fri 07:35:56 PM 40.9119 -83.4736 242° Southwest 156 180 8,000  Climbing Indianapolis Center
Fri 07:36:58 PM 40.8894 -83.5269 241° Southwest 157 181 7,900  Descending Indianapolis Center
Fri 07:38:00 PM 40.8689 -83.5761 241° Southwest 153 176 8,000 48 Climbing Indianapolis Center
Fri 07:39:02 PM 40.8478 -83.6267 241° Southwest 155 178 8,000  Level Indianapolis Center
Fri 07:40:04 PM 40.8283 -83.6775 243° Southwest 154 177 8,000  Level Indianapolis Center
Fri 07:41:06 PM 40.8067 -83.7286 241° Southwest 157 181 8,000  Level Indianapolis Center
Fri 07:42:08 PM 40.7856 -83.7792 241° Southwest 157 181 8,000  Level Indianapolis Center
Fri 07:43:10 PM 40.7656 -83.8317 243° Southwest 159 183 8,000  Level Indianapolis Center
Fri 07:44:12 PM 40.7386 -83.8919 239° Southwest 162 186 8,000  Level Indianapolis Center
Fri 07:45:14 PM 40.7172 -83.9428 241° Southwest 159 183 8,000  Level Indianapolis Center
Fri 07:46:15 PM 40.6989 -83.9964 246° West 159 183 8,000  Level Indianapolis Center
Fri 07:47:17 PM 40.6794 -84.0481 244° Southwest 157 181 8,000  Level Indianapolis Center
Fri 07:48:19 PM 40.6619 -84.1011 247° West 156 180 8,000  Level Indianapolis Center
Fri 07:49:21 PM 40.6425 -84.1533 244° Southwest 157 181 8,000  Level Indianapolis Center
Fri 07:50:03 PM 40.6253 -84.1967 242° Southwest 157 181 8,000  Level Indianapolis Center
Fri 07:50:23 PM 40.6231 -84.2058 252° West 157 181 8,000  Level Indianapolis Center
Fri 07:51:04 PM 40.6064 -84.2489 243° Southwest 158 182 8,000  Level Indianapolis Center
Fri 07:51:25 PM 40.5997 -84.2675 245° Southwest 159 183 8,000  Level Indianapolis Center
Fri 07:52:05 PM 40.5878 -84.3014 245° Southwest 160 184 8,000  Level Indianapolis Center
Fri 07:52:27 PM 40.5803 -84.3186 240° Southwest 157 181 8,000  Level Indianapolis Center
Fri 07:52:59 PM 40.5692 -84.3483 244° Southwest 160 184 8,000  Level Indianapolis Center
Fri 07:53:29 PM 40.5603 -84.3714 243° Southwest 158 182 8,000  Level Indianapolis Center
Fri 07:54:06 PM 40.5481 -84.4033 243° Southwest 159 183 8,000  Level Indianapolis Center
Fri 07:54:31 PM 40.5422 -84.4247 250° West 158 182 8,000  Level Indianapolis Center
Fri 07:55:01 PM 40.5294 -84.4528 239° Southwest 160 184 8,000 -97 Level Indianapolis Center
Fri 07:55:33 PM 40.5225 -84.4781 250° West 159 183 7,900  Descending Indianapolis Center
Fri 07:56:07 PM 40.5078 -84.5131 241° Southwest 160 184 8,000 194 Climbing Indianapolis Center
Fri 07:56:35 PM 40.5028 -84.5322 251° West 161 185 8,100 -98 Climbing Indianapolis Center
Fri 07:57:08 PM 40.4889 -84.5681 243° Southwest 163 188 7,900 -98 Descending Indianapolis Center
Fri 07:57:36 PM 40.4839 -84.5858 250° West 162 186 8,000 98 Climbing Indianapolis Center
Fri 07:58:09 PM 40.4697 -84.6203 242° Southwest 161 185 8,000 97 Level Indianapolis Center
Fri 07:58:38 PM 40.4639 -84.6383 247° West 160 184 8,100 66 Climbing Indianapolis Center
Fri 07:59:40 PM 40.4431 -84.7022 247° West 161 185 8,100  Level Indianapolis Center
Fri 08:00:42 PM 40.4236 -84.7558 245° Southwest 161 185 8,100  Level Indianapolis Center
Fri 08:01:05 PM 40.4153 -84.7744 240° Southwest 161 185 8,100  Level Indianapolis Center
Fri 08:01:44 PM 40.4025 -84.8089 244° Southwest 162 186 8,100  Level Indianapolis Center
Fri 08:02:06 PM 40.3939 -84.8292 241° Southwest 164 189 8,100  Level Indianapolis Center
Fri 08:02:46 PM 40.3814 -84.8628 244° Southwest 166 191 8,100  Level Indianapolis Center
Fri 08:03:07 PM 40.3728 -84.8808 238° Southwest 165 190 8,100  Level Indianapolis Center
Fri 08:03:48 PM 40.3581 -84.9192 243° Southwest 164 189 8,100  Level Indianapolis Center
Fri 08:04:49 PM 40.3372 -84.9731 243° Southwest 164 189 8,100  Level Indianapolis Center
Fri 08:05:57 PM 40.3139 -85.0314 242° Southwest 164 189 8,100 -48 Level Indianapolis Center
Fri 08:06:53 PM 40.2936 -85.0789 241° Southwest 163 188 8,000 -82 Descending Indianapolis Center
Fri 08:07:10 PM 40.2872 -85.0958 244° Southwest 165 190 8,000 97 Level Indianapolis Center
Fri 08:07:55 PM 40.2722 -85.1328 242° Southwest 166 191 8,100 91 Climbing Indianapolis Center
Fri 08:08:16 PM 40.2631 -85.1581 245° Southwest 164 189 8,100  Level Indianapolis Center
Fri 08:08:56 PM 40.2542 -85.1875 248° West 163 188 8,100  Level Indianapolis Center
Fri 08:09:23 PM 40.2433 -85.2181 245° Southwest 165 190 8,100  Level Indianapolis Center
Fri 08:09:58 PM 40.2328 -85.2417 240° Southwest 165 190 8,100  Level Indianapolis Center
Fri 08:11:00 PM 40.2128 -85.2956 244° Southwest 164 189 8,100  Level Indianapolis Center
Fri 08:12:02 PM 40.1883 -85.3594 243° Southwest 166 191 8,100 -293 Level Indianapolis Center
Fri 08:13:03 PM 40.1656 -85.4161 242° Southwest 173 199 7,500 -585 Descending Indianapolis Center
Fri 08:14:05 PM 40.1436 -85.4753 244° Southwest 179 206 6,900 -581 Descending Indianapolis Center
Fri 08:15:07 PM 40.1192 -85.5358 242° Southwest 183 211 6,300 -532 Descending Indianapolis Center
Fri 08:16:09 PM 40.0967 -85.5972 244° Southwest 184 212 5,800 -439 Descending Indianapolis Center
Fri 08:17:10 PM 40.0736 -85.6558 243° Southwest 183 211 5,400 -488 Descending Indianapolis Center
Fri 08:18:12 PM 40.0500 -85.7161 243° Southwest 183 211 4,800 -532 Descending Indianapolis Center
Fri 08:19:14 PM 40.0278 -85.7761 244° Southwest 183 211 4,300 -339 Descending Indianapolis Center
Fri 08:20:16 PM 40.0042 -85.8378 243° Southwest 186 214 4,100 -244 Descending Indianapolis Center
Fri 08:21:17 PM 39.9783 -85.9033 243° Southwest 179 206 3,800 -390 Descending Indianapolis Center
Fri 08:22:19 PM 39.9542 -85.9636 242° Southwest 180 207 3,300 -339 Descending Indianapolis Center
Fri 08:23:21 PM 39.9294 -86.0272 243° Southwest 184 212 3,100 -194 Descending Indianapolis Center

Login

Don't have an account? Register now (free) for customized features, flight alerts, and more!